FDX31 EHAM-EDDF
Flight info
| Callsign | FDX31 |
|---|---|
| Flight time | 0h 40m |
| Altitude | 31000 |
| Route | RENDI2S EDUPO Z739 AMOSU DCT DIXAT T149 LIPMI DCT ROLIS ROLIS5A |
| Aircraft | B77L/H-VGDW/C |
Departure
| Time | 2026-04-17 12:24 |
|---|---|
| Airport | Amsterdam Airport Schiphol (EHAM) |
Arrival
| Time | 2026-04-17 13:04 |
|---|---|
| Airport | Frankfurt Main Airport (EDDF) |
| Time | Latitude | Longitude | Altitude | Speed | Heading |
|---|---|---|---|---|---|
| 2026-04-17 12:01 | 52.29772 | 4.76888 | 3 ft | 0 kts | 148° |
| 2026-04-17 12:16 | 52.29784 | 4.76875 | 3 ft | 3 kts | 148° |
| 2026-04-17 12:16 | 52.29800 | 4.76859 | 4 ft | 3 kts | 148° |
| 2026-04-17 12:16 | 52.29816 | 4.76843 | 5 ft | 3 kts | 148° |
| 2026-04-17 12:17 | 52.29831 | 4.76828 | 6 ft | 2 kts | 148° |
| 2026-04-17 12:17 | 52.29846 | 4.76813 | 6 ft | 3 kts | 148° |
| 2026-04-17 12:17 | 52.29860 | 4.76798 | 6 ft | 0 kts | 148° |
| 2026-04-17 12:17 | 52.29860 | 4.76799 | 5 ft | 1 kts | 145° |
| 2026-04-17 12:18 | 52.29858 | 4.76815 | 6 ft | 2 kts | 92° |
| 2026-04-17 12:18 | 52.29867 | 4.76828 | 5 ft | 2 kts | 37° |
| 2026-04-17 12:18 | 52.29868 | 4.76829 | 5 ft | 0 kts | 37° |
| 2026-04-17 12:19 | 52.29879 | 4.76843 | 3 ft | 7 kts | 37° |
| 2026-04-17 12:20 | 52.29923 | 4.76903 | 4 ft | 8 kts | 44° |
| 2026-04-17 12:20 | 52.29959 | 4.76976 | 5 ft | 8 kts | 57° |
| 2026-04-17 12:20 | 52.29990 | 4.77059 | 5 ft | 9 kts | 58° |
| 2026-04-17 12:20 | 52.30030 | 4.77165 | 2 ft | 13 kts | 58° |
| 2026-04-17 12:21 | 52.30079 | 4.77294 | 2 ft | 13 kts | 58° |
| 2026-04-17 12:21 | 52.30130 | 4.77419 | 0 ft | 10 kts | 52° |
| 2026-04-17 12:21 | 52.30166 | 4.77483 | -1 ft | 4 kts | 41° |
| 2026-04-17 12:21 | 52.30177 | 4.77497 | 0 ft | 2 kts | 37° |
| 2026-04-17 12:22 | 52.30180 | 4.77501 | 0 ft | 0 kts | 36° |
| 2026-04-17 12:22 | 52.30204 | 4.77522 | 0 ft | 6 kts | 25° |
| 2026-04-17 12:22 | 52.30255 | 4.77549 | 1 ft | 9 kts | 9° |
| 2026-04-17 12:22 | 52.30316 | 4.77519 | 2 ft | 10 kts | 323° |
| 2026-04-17 12:23 | 52.30339 | 4.77435 | 1 ft | 7 kts | 260° |
| 2026-04-17 12:23 | 52.30321 | 4.77384 | 0 ft | 5 kts | 235° |
| 2026-04-17 12:23 | 52.30262 | 4.77237 | -3 ft | 47 kts | 237° |
| 2026-04-17 12:23 | 52.29866 | 4.76203 | 4 ft | 165 kts | 236° |
| 2026-04-17 12:24 | 52.29216 | 4.74460 | 1075 ft | 183 kts | 237° |
| 2026-04-17 12:24 | 52.28562 | 4.72604 | 2304 ft | 194 kts | 239° |
| 2026-04-17 12:24 | 52.27887 | 4.70669 | 3269 ft | 195 kts | 237° |
| 2026-04-17 12:24 | 52.27056 | 4.69023 | 4570 ft | 189 kts | 215° |
| 2026-04-17 12:25 | 52.25845 | 4.68223 | 5923 ft | 192 kts | 187° |
| 2026-04-17 12:25 | 52.24417 | 4.68171 | 6725 ft | 221 kts | 173° |
| 2026-04-17 12:25 | 52.22981 | 4.69356 | 7109 ft | 254 kts | 134° |
| 2026-04-17 12:25 | 52.22020 | 4.71944 | 7838 ft | 273 kts | 118° |
| 2026-04-17 12:26 | 52.21211 | 4.74770 | 8760 ft | 283 kts | 118° |
| 2026-04-17 12:26 | 52.20325 | 4.77692 | 9790 ft | 290 kts | 121° |
| 2026-04-17 12:26 | 52.19359 | 4.80625 | 10750 ft | 299 kts | 122° |
| 2026-04-17 12:26 | 52.18295 | 4.83693 | 11247 ft | 324 kts | 122° |
| 2026-04-17 12:27 | 52.17529 | 4.87321 | 11436 ft | 361 kts | 98° |
| 2026-04-17 12:27 | 52.17819 | 4.91559 | 11812 ft | 387 kts | 75° |
| 2026-04-17 12:27 | 52.18665 | 4.95826 | 12558 ft | 401 kts | 72° |
| 2026-04-17 12:27 | 52.19557 | 5.00181 | 13626 ft | 407 kts | 72° |
| 2026-04-17 12:28 | 52.20427 | 5.04530 | 14616 ft | 413 kts | 73° |
| 2026-04-17 12:28 | 52.21300 | 5.09038 | 15555 ft | 419 kts | 73° |
| 2026-04-17 12:28 | 52.22163 | 5.13615 | 16448 ft | 426 kts | 73° |
| 2026-04-17 12:28 | 52.23030 | 5.18264 | 17332 ft | 431 kts | 74° |
| 2026-04-17 12:29 | 52.23527 | 5.23085 | 17983 ft | 436 kts | 92° |
| 2026-04-17 12:29 | 52.23017 | 5.27959 | 18761 ft | 438 kts | 111° |
| 2026-04-17 12:29 | 52.21681 | 5.32411 | 19575 ft | 433 kts | 127° |
| 2026-04-17 12:29 | 52.19927 | 5.36417 | 20249 ft | 439 kts | 129° |
| 2026-04-17 12:30 | 52.18087 | 5.40460 | 20950 ft | 446 kts | 129° |
| 2026-04-17 12:30 | 52.16238 | 5.44553 | 21729 ft | 451 kts | 129° |
| 2026-04-17 12:30 | 52.14389 | 5.48726 | 22505 ft | 456 kts | 128° |
| 2026-04-17 12:30 | 52.12562 | 5.52903 | 23245 ft | 461 kts | 128° |
| 2026-04-17 12:31 | 52.10703 | 5.57166 | 23929 ft | 467 kts | 128° |
| 2026-04-17 12:31 | 52.08798 | 5.61522 | 24527 ft | 472 kts | 128° |
| 2026-04-17 12:31 | 52.06883 | 5.65883 | 25137 ft | 477 kts | 128° |
| 2026-04-17 12:31 | 52.04887 | 5.70238 | 25742 ft | 481 kts | 131° |
| 2026-04-17 12:32 | 52.02692 | 5.74350 | 26318 ft | 484 kts | 135° |
| 2026-04-17 12:32 | 52.00411 | 5.78419 | 26895 ft | 489 kts | 135° |
| 2026-04-17 12:32 | 51.98143 | 5.82554 | 27620 ft | 490 kts | 134° |
| 2026-04-17 12:32 | 51.95902 | 5.86727 | 28488 ft | 488 kts | 133° |
| 2026-04-17 12:33 | 51.93681 | 5.90877 | 29184 ft | 490 kts | 133° |
| 2026-04-17 12:33 | 51.89128 | 5.99356 | 29224 ft | 509 kts | 133° |
| 2026-04-17 12:34 | 51.84383 | 6.08138 | 29224 ft | 526 kts | 133° |
| 2026-04-17 12:34 | 51.79478 | 6.17110 | 29223 ft | 539 kts | 133° |
| 2026-04-17 12:35 | 51.74477 | 6.26231 | 29217 ft | 545 kts | 133° |
| 2026-04-17 12:35 | 51.69479 | 6.35354 | 29214 ft | 545 kts | 133° |
| 2026-04-17 12:37 | 51.49701 | 6.72355 | 29212 ft | 544 kts | 132° |
| 2026-04-17 12:38 | 51.44823 | 6.81524 | 29210 ft | 544 kts | 132° |
| 2026-04-17 12:38 | 51.39892 | 6.90747 | 29213 ft | 544 kts | 132° |
| 2026-04-17 12:39 | 51.34960 | 6.99949 | 29210 ft | 544 kts | 132° |
| 2026-04-17 12:39 | 51.29976 | 7.09071 | 29209 ft | 544 kts | 135° |
| 2026-04-17 12:40 | 51.24201 | 7.16704 | 29218 ft | 541 kts | 148° |
| 2026-04-17 12:40 | 51.18738 | 7.21639 | 29222 ft | 537 kts | 157° |
| 2026-04-17 12:41 | 51.11970 | 7.26730 | 29206 ft | 538 kts | 156° |
| 2026-04-17 12:41 | 51.05310 | 7.32135 | 29219 ft | 539 kts | 154° |
| 2026-04-17 12:42 | 50.98713 | 7.37645 | 29153 ft | 538 kts | 154° |
| 2026-04-17 12:42 | 50.95409 | 7.40394 | 28410 ft | 528 kts | 154° |
| 2026-04-17 12:42 | 50.92178 | 7.43065 | 27316 ft | 519 kts | 154° |
| 2026-04-17 12:42 | 50.89003 | 7.45673 | 26284 ft | 508 kts | 154° |
| 2026-04-17 12:43 | 50.85900 | 7.48211 | 25300 ft | 497 kts | 155° |
| 2026-04-17 12:43 | 50.82857 | 7.50692 | 24328 ft | 487 kts | 155° |
| 2026-04-17 12:43 | 50.79885 | 7.53113 | 23261 ft | 473 kts | 155° |
| 2026-04-17 12:43 | 50.76991 | 7.55469 | 22064 ft | 463 kts | 155° |
| 2026-04-17 12:44 | 50.74159 | 7.57770 | 20920 ft | 453 kts | 155° |
| 2026-04-17 12:44 | 50.71415 | 7.59999 | 19821 ft | 434 kts | 155° |
| 2026-04-17 12:44 | 50.68785 | 7.62133 | 18775 ft | 417 kts | 155° |
| 2026-04-17 12:44 | 50.66244 | 7.64192 | 17802 ft | 404 kts | 155° |
| 2026-04-17 12:45 | 50.63788 | 7.66179 | 16877 ft | 400 kts | 155° |
| 2026-04-17 12:45 | 50.61329 | 7.68163 | 16069 ft | 393 kts | 155° |
| 2026-04-17 12:45 | 50.58910 | 7.70115 | 15332 ft | 391 kts | 155° |
| 2026-04-17 12:45 | 50.56499 | 7.72106 | 14611 ft | 391 kts | 154° |
| 2026-04-17 12:46 | 50.54121 | 7.74120 | 13883 ft | 388 kts | 153° |
| 2026-04-17 12:46 | 50.51740 | 7.76140 | 13119 ft | 384 kts | 153° |
| 2026-04-17 12:46 | 50.49415 | 7.78107 | 12329 ft | 372 kts | 153° |
| 2026-04-17 12:46 | 50.47177 | 7.79994 | 11584 ft | 360 kts | 153° |
| 2026-04-17 12:47 | 50.44994 | 7.81829 | 10855 ft | 352 kts | 153° |
| 2026-04-17 12:47 | 50.42817 | 7.83644 | 10557 ft | 355 kts | 153° |
| 2026-04-17 12:47 | 50.40622 | 7.85462 | 10368 ft | 358 kts | 153° |
| 2026-04-17 12:47 | 50.38380 | 7.87309 | 10248 ft | 367 kts | 153° |
| 2026-04-17 12:48 | 50.36119 | 7.89165 | 10224 ft | 367 kts | 153° |
| 2026-04-17 12:48 | 50.33843 | 7.91027 | 10222 ft | 370 kts | 153° |
| 2026-04-17 12:48 | 50.31552 | 7.92901 | 10218 ft | 372 kts | 153° |
| 2026-04-17 12:48 | 50.29259 | 7.94779 | 10208 ft | 370 kts | 153° |
| 2026-04-17 12:49 | 50.27143 | 7.96957 | 10210 ft | 368 kts | 140° |
| 2026-04-17 12:49 | 50.25410 | 7.99898 | 10215 ft | 371 kts | 126° |
| 2026-04-17 12:49 | 50.24125 | 8.03397 | 10208 ft | 373 kts | 116° |
| 2026-04-17 12:49 | 50.23040 | 8.07085 | 10214 ft | 373 kts | 114° |
| 2026-04-17 12:50 | 50.22006 | 8.10806 | 10208 ft | 374 kts | 114° |
| 2026-04-17 12:50 | 50.20981 | 8.14541 | 10177 ft | 374 kts | 114° |
| 2026-04-17 12:50 | 50.19955 | 8.18292 | 9786 ft | 378 kts | 113° |
| 2026-04-17 12:50 | 50.18931 | 8.22051 | 9324 ft | 374 kts | 113° |
| 2026-04-17 12:51 | 50.17944 | 8.25693 | 8922 ft | 346 kts | 113° |
| 2026-04-17 12:51 | 50.17049 | 8.29013 | 8565 ft | 332 kts | 114° |
| 2026-04-17 12:51 | 50.16157 | 8.32338 | 8288 ft | 323 kts | 113° |
| 2026-04-17 12:51 | 50.15303 | 8.35533 | 8020 ft | 316 kts | 114° |
| 2026-04-17 12:52 | 50.14467 | 8.38661 | 7759 ft | 308 kts | 114° |
| 2026-04-17 12:52 | 50.13656 | 8.41716 | 7494 ft | 302 kts | 113° |
| 2026-04-17 12:52 | 50.12878 | 8.44665 | 7301 ft | 292 kts | 114° |
| 2026-04-17 12:52 | 50.12101 | 8.47598 | 7283 ft | 290 kts | 113° |
| 2026-04-17 12:53 | 50.11344 | 8.50463 | 7209 ft | 288 kts | 113° |
| 2026-04-17 12:53 | 50.10587 | 8.53336 | 7199 ft | 285 kts | 113° |
| 2026-04-17 12:53 | 50.09832 | 8.56206 | 7200 ft | 286 kts | 114° |
| 2026-04-17 12:53 | 50.09077 | 8.59067 | 7217 ft | 286 kts | 113° |
| 2026-04-17 12:54 | 50.08316 | 8.61949 | 7217 ft | 287 kts | 113° |
| 2026-04-17 12:54 | 50.07561 | 8.64831 | 7217 ft | 285 kts | 111° |
| 2026-04-17 12:54 | 50.07164 | 8.67831 | 7228 ft | 286 kts | 97° |
| 2026-04-17 12:54 | 50.07019 | 8.70956 | 7221 ft | 290 kts | 94° |
| 2026-04-17 12:55 | 50.06919 | 8.74101 | 7220 ft | 291 kts | 94° |
| 2026-04-17 12:55 | 50.06823 | 8.77257 | 7076 ft | 293 kts | 94° |
| 2026-04-17 12:55 | 50.06729 | 8.80440 | 6769 ft | 295 kts | 94° |
| 2026-04-17 12:55 | 50.06636 | 8.83621 | 6474 ft | 290 kts | 94° |
| 2026-04-17 12:56 | 50.06546 | 8.86694 | 6161 ft | 285 kts | 94° |
| 2026-04-17 12:56 | 50.06454 | 8.89711 | 5814 ft | 269 kts | 93° |
| 2026-04-17 12:56 | 50.06375 | 8.92511 | 5461 ft | 249 kts | 94° |
| 2026-04-17 12:56 | 50.06302 | 8.95141 | 5150 ft | 238 kts | 93° |
| 2026-04-17 12:57 | 50.06335 | 8.97663 | 4894 ft | 231 kts | 81° |
| 2026-04-17 12:57 | 50.06743 | 9.00119 | 4639 ft | 238 kts | 71° |
| 2026-04-17 12:57 | 50.07628 | 9.02322 | 4319 ft | 244 kts | 42° |
| 2026-04-17 12:57 | 50.09110 | 9.03509 | 4078 ft | 241 kts | 9° |
| 2026-04-17 12:58 | 50.10726 | 9.03301 | 4073 ft | 234 kts | 339° |
| 2026-04-17 12:58 | 50.12013 | 9.01835 | 4005 ft | 231 kts | 307° |
| 2026-04-17 12:58 | 50.12607 | 8.99543 | 3990 ft | 229 kts | 279° |
| 2026-04-17 12:58 | 50.12744 | 8.97067 | 3974 ft | 230 kts | 265° |
| 2026-04-17 12:59 | 50.12439 | 8.94644 | 3995 ft | 228 kts | 255° |
| 2026-04-17 12:59 | 50.11982 | 8.92264 | 3985 ft | 228 kts | 251° |
| 2026-04-17 12:59 | 50.11452 | 8.89935 | 3981 ft | 229 kts | 249° |
| 2026-04-17 12:59 | 50.10913 | 8.87659 | 3951 ft | 210 kts | 249° |
| 2026-04-17 13:00 | 50.10428 | 8.85627 | 3953 ft | 194 kts | 249° |
| 2026-04-17 13:00 | 50.09957 | 8.83653 | 3681 ft | 194 kts | 249° |
| 2026-04-17 13:00 | 50.09493 | 8.81706 | 3428 ft | 190 kts | 249° |
| 2026-04-17 13:00 | 50.09037 | 8.79791 | 3196 ft | 188 kts | 249° |
| 2026-04-17 13:01 | 50.08592 | 8.77913 | 2937 ft | 187 kts | 249° |
| 2026-04-17 13:01 | 50.08138 | 8.76005 | 2698 ft | 184 kts | 249° |
| 2026-04-17 13:01 | 50.07701 | 8.74179 | 2427 ft | 180 kts | 249° |
| 2026-04-17 13:01 | 50.07270 | 8.72347 | 2214 ft | 181 kts | 250° |
| 2026-04-17 13:02 | 50.06960 | 8.70429 | 1992 ft | 183 kts | 258° |
| 2026-04-17 13:02 | 50.06740 | 8.68495 | 1809 ft | 178 kts | 256° |
| 2026-04-17 13:02 | 50.06393 | 8.66738 | 1552 ft | 161 kts | 250° |
| 2026-04-17 13:02 | 50.06062 | 8.65228 | 1375 ft | 137 kts | 248° |
| 2026-04-17 13:03 | 50.05723 | 8.63875 | 1185 ft | 135 kts | 250° |
| 2026-04-17 13:03 | 50.05405 | 8.62471 | 1013 ft | 139 kts | 252° |
| 2026-04-17 13:03 | 50.05066 | 8.61048 | 817 ft | 141 kts | 251° |
| 2026-04-17 13:03 | 50.04725 | 8.59617 | 581 ft | 140 kts | 253° |
| 2026-04-17 13:04 | 50.04391 | 8.58192 | 382 ft | 139 kts | 252° |
| 2026-04-17 13:04 | 50.04084 | 8.56894 | 370 ft | 115 kts | 250° |
| 2026-04-17 13:04 | 50.03850 | 8.55918 | 362 ft | 79 kts | 249° |
| 2026-04-17 13:04 | 50.03708 | 8.55321 | 357 ft | 41 kts | 254° |
| 2026-04-17 13:05 | 50.03687 | 8.55034 | 353 ft | 18 kts | 277° |
| 2026-04-17 13:05 | 50.03709 | 8.54888 | 359 ft | 6 kts | 283° |
| 2026-04-17 13:05 | 50.03715 | 8.54854 | 357 ft | 0 kts | 283° |
| 2026-04-17 13:06 | 50.03719 | 8.54823 | 358 ft | 5 kts | 281° |
| 2026-04-17 13:07 | 50.03725 | 8.54759 | 359 ft | 8 kts | 278° |
| 2026-04-17 13:07 | 50.03732 | 8.54671 | 352 ft | 8 kts | 272° |
| 2026-04-17 13:07 | 50.03720 | 8.54584 | 361 ft | 8 kts | 252° |
| 2026-04-17 13:07 | 50.03703 | 8.54499 | 360 ft | 8 kts | 252° |
| 2026-04-17 13:08 | 50.03683 | 8.54415 | 361 ft | 9 kts | 249° |
| 2026-04-17 13:08 | 50.03657 | 8.54311 | 360 ft | 12 kts | 248° |
| 2026-04-17 13:08 | 50.03621 | 8.54171 | 359 ft | 16 kts | 248° |
| 2026-04-17 13:08 | 50.03582 | 8.54014 | 356 ft | 16 kts | 250° |
| 2026-04-17 13:09 | 50.03541 | 8.53834 | 355 ft | 19 kts | 251° |
| 2026-04-17 13:09 | 50.03499 | 8.53649 | 351 ft | 10 kts | 250° |
| 2026-04-17 13:09 | 50.03483 | 8.53581 | 350 ft | 8 kts | 250° |
| 2026-04-17 13:09 | 50.03477 | 8.53484 | 338 ft | 10 kts | 305° |
| 2026-04-17 13:10 | 50.03540 | 8.53502 | 351 ft | 10 kts | 22° |
| 2026-04-17 13:10 | 50.03603 | 8.53541 | 354 ft | 10 kts | 21° |
| 2026-04-17 13:10 | 50.03668 | 8.53569 | 358 ft | 10 kts | 354° |
| 2026-04-17 13:10 | 50.03692 | 8.53483 | 359 ft | 10 kts | 265° |
| 2026-04-17 13:11 | 50.03674 | 8.53352 | 355 ft | 15 kts | 256° |
| 2026-04-17 13:11 | 50.03639 | 8.53197 | 357 ft | 15 kts | 249° |
| 2026-04-17 13:11 | 50.03602 | 8.53044 | 361 ft | 15 kts | 249° |
| 2026-04-17 13:11 | 50.03584 | 8.52913 | 356 ft | 12 kts | 284° |
| 2026-04-17 13:12 | 50.03607 | 8.52864 | 360 ft | 4 kts | 312° |
| 2026-04-17 13:12 | 50.03668 | 8.52817 | 357 ft | 6 kts | 342° |
| 2026-04-17 13:12 | 50.03693 | 8.52802 | 358 ft | 3 kts | 338° |
| 2026-04-17 13:13 | 50.03712 | 8.52791 | 355 ft | 3 kts | 341° |
| 2026-04-17 13:13 | 50.03730 | 8.52781 | 357 ft | 2 kts | 339° |